Live aus Altenrhein
LIVE
LSZR 231720Z VRB02KT 9999 SCT070 BKN090 29/17 Q1017 NOSIG RMK Q

People´s Info Center:

Öffnungszeiten Mo-Fr, 8-18 Uhr

 

info@peoples.ch

 
Aus Österreich:

T: +43 (0)5572 203 610

 

Aus CH / LI / DE:

T: +41 (0)71 858 51 60

 

Reverse Charge für innerdeutsche Geschäftsflüge

Geschäftliche Inlandflüge unterliegen dem Reverse-Charge-Verfahren.

 

Innerdeutsche Flüge für Geschäftsreisende unterliegen dem Reserve-Charge Verfahren. Beim Reserve-Charge Verfahren wird die Steuerschuld auf den Leistungsempfänger übertragen,  gemäss § 19, Art. 1 Satz 2 des UStG.

 

Bitte registrieren Sie Ihr Unternehmen vor der ersten Buchung über folgendes Formular.

Unser Info Center wird sich dann innerhalb eines Werktages mit Ihnen in Verbindung setzten.

 

Registration für innerdeutsche Geschäftsflüge / Registration for domestic business flights
Firmenname / Company name *
                                               
Vorname *   Name *
 
Strasse / Street *   PLZ / postal code *
 
Ort / Place *   Land / Country *
 
UID-Nummer *   Telefonnummer / Phone number *
 
E-Mail *    
   
Flugkontingent *